createdAt,value
2019-05-14T00:01:07.345Z,7.07
2019-05-14T00:04:04.272Z,7.13
2019-05-14T00:07:01.119Z,7.40
2019-05-14T00:09:57.384Z,7.50
2019-05-14T00:12:53.879Z,7.20
2019-05-14T00:15:52.162Z,7.70
2019-05-14T00:18:47.766Z,7.53
2019-05-14T00:21:44.352Z,7.50
2019-05-14T00:24:41.634Z,7.67
2019-05-14T00:27:36.559Z,7.33
2019-05-14T00:30:34.338Z,7.90
2019-05-14T00:33:31.652Z,6.90
2019-05-14T00:36:26.918Z,7.90
2019-05-14T00:39:32.065Z,7.77
2019-05-14T00:42:26.643Z,7.30
2019-05-14T00:45:23.499Z,7.17
2019-05-14T00:48:22.177Z,7.40
2019-05-14T00:51:16.998Z,8.28
2019-05-14T00:54:14.981Z,8.43
2019-05-14T00:57:11.940Z,7.93
2019-05-14T01:00:17.482Z,8.20
2019-05-14T01:03:13.263Z,7.97
2019-05-14T01:06:14.068Z,8.67
2019-05-14T01:09:11.886Z,8.80
2019-05-14T01:12:07.713Z,8.10
2019-05-14T01:15:09.787Z,8.80
2019-05-14T01:18:02.213Z,8.23
2019-05-14T01:21:01.114Z,8.37
2019-05-14T01:23:54.705Z,7.53
2019-05-14T01:26:54.874Z,8.07
2019-05-14T01:29:52.841Z,7.37
2019-05-14T01:32:51.208Z,7.58
2019-05-14T01:35:46.107Z,8.10
2019-05-14T01:38:46.902Z,7.97
2019-05-14T01:41:51.711Z,8.13
2019-05-14T01:44:46.149Z,8.67
2019-05-14T01:47:41.799Z,8.57
2019-05-14T01:50:41.425Z,8.58
2019-05-14T01:53:35.799Z,9.77
2019-05-14T01:56:33.905Z,9.17
2019-05-14T01:59:32.175Z,9.30
2019-05-14T02:02:31.888Z,10.50
2019-05-14T02:05:30.936Z,10.00
2019-05-14T02:08:24.994Z,10.30
2019-05-14T02:11:22.796Z,9.90
2019-05-14T02:14:18.315Z,9.77
2019-05-14T02:17:16.017Z,10.53
2019-05-14T02:20:12.594Z,10.13
2019-05-14T02:23:08.396Z,10.58
2019-05-14T02:26:05.032Z,10.80
2019-05-14T02:29:01.944Z,11.37
2019-05-14T02:31:59.001Z,11.70
2019-05-14T02:34:53.522Z,12.77
2019-05-14T02:37:51.729Z,13.67
2019-05-14T02:40:49.798Z,13.20
2019-05-14T02:43:45.150Z,14.43
2019-05-14T02:46:41.827Z,12.97
2019-05-14T02:49:39.700Z,13.70
2019-05-14T02:52:34.212Z,13.63
2019-05-14T02:55:30.120Z,15.07
2019-05-14T02:58:29.538Z,15.97
2019-05-14T03:01:30.183Z,15.90
2019-05-14T03:04:24.994Z,15.67
2019-05-14T03:07:21.842Z,20.20
2019-05-14T03:10:19.446Z,16.67
2019-05-14T03:13:23.910Z,16.17
2019-05-14T03:16:30.387Z,15.87
2019-05-14T03:19:19.654Z,18.52
2019-05-14T03:22:15.320Z,15.57
2019-05-14T03:25:11.232Z,14.27
2019-05-14T03:28:09.252Z,14.77
2019-05-14T03:31:05.018Z,13.80
2019-05-14T03:34:03.539Z,11.70
2019-05-14T03:37:03.468Z,12.97
2019-05-14T03:39:54.003Z,13.27
2019-05-14T03:42:51.686Z,11.25
2019-05-14T03:45:49.563Z,13.00
2019-05-14T03:48:44.930Z,13.40
2019-05-14T03:51:41.561Z,14.17
2019-05-14T03:54:45.548Z,14.78
2019-05-14T03:57:42.843Z,14.60
2019-05-14T04:00:50.488Z,15.50
2019-05-14T04:03:46.431Z,15.40
2019-05-14T04:06:43.578Z,15.37
2019-05-14T04:09:41.417Z,14.77
2019-05-14T04:12:40.380Z,14.18
2019-05-14T04:15:39.036Z,16.60
2019-05-14T04:18:32.385Z,16.23
2019-05-14T04:21:33.146Z,16.97
2019-05-14T04:24:29.646Z,16.27
2019-05-14T04:27:24.650Z,14.33
2019-05-14T04:30:24.387Z,12.90
2019-05-14T04:33:19.095Z,13.30
2019-05-14T04:36:25.005Z,14.43
2019-05-14T04:39:23.112Z,11.33
2019-05-14T04:42:20.526Z,11.77
2019-05-14T04:45:21.933Z,13.27
2019-05-14T04:48:28.950Z,12.25
2019-05-14T04:51:10.693Z,10.53
2019-05-14T04:54:09.426Z,10.20
2019-05-14T04:57:09.753Z,11.33
2019-05-14T05:00:13.436Z,11.10
2019-05-14T05:03:13.164Z,11.07
2019-05-14T05:06:09.921Z,11.50
2019-05-14T05:09:04.757Z,11.10
2019-05-14T05:12:02.033Z,12.30
2019-05-14T05:15:00.975Z,10.98
2019-05-14T05:17:58.947Z,10.23
2019-05-14T05:20:55.278Z,9.57
2019-05-14T05:23:58.532Z,10.27
2019-05-14T05:27:01.341Z,9.53
2019-05-14T05:29:59.030Z,7.90
2019-05-14T05:32:54.962Z,8.27
2019-05-14T05:35:51.558Z,8.57
2019-05-14T05:38:49.226Z,8.00
2019-05-14T05:41:44.226Z,7.60
2019-05-14T05:44:41.097Z,8.20
2019-05-14T05:47:39.080Z,7.63
2019-05-14T05:50:33.830Z,8.67
2019-05-14T05:53:32.903Z,10.85
2019-05-14T05:56:29.678Z,8.43
2019-05-14T05:59:29.002Z,8.78
2019-05-14T06:02:25.132Z,7.53
2019-05-14T06:05:24.492Z,7.00
2019-05-14T06:08:19.545Z,6.40
2019-05-14T06:11:23.875Z,6.60
2019-05-14T06:14:32.949Z,7.17
2019-05-14T06:17:29.116Z,7.47
2019-05-14T06:20:28.158Z,7.05
2019-05-14T06:23:24.037Z,7.43
2019-05-14T06:26:19.797Z,7.47
2019-05-14T06:29:18.512Z,6.47
2019-05-14T06:32:12.218Z,6.60
2019-05-14T06:35:15.364Z,7.28
2019-05-14T06:38:10.569Z,6.70
2019-05-14T06:41:08.389Z,7.00
2019-05-14T06:44:05.214Z,6.83
2019-05-14T06:47:04.037Z,6.90
2019-05-14T06:50:01.186Z,6.63
2019-05-14T06:52:58.105Z,6.33
2019-05-14T06:55:54.178Z,6.63
2019-05-14T06:58:50.164Z,6.60
2019-05-14T07:01:48.958Z,6.40
2019-05-14T07:04:43.828Z,6.40
2019-05-14T07:07:52.614Z,6.40
2019-05-14T07:10:49.336Z,6.20
2019-05-14T07:13:46.060Z,6.50
2019-05-14T07:16:48.517Z,6.37
2019-05-14T07:19:45.028Z,6.80
2019-05-14T07:22:41.566Z,6.83
2019-05-14T07:25:40.942Z,6.30
2019-05-14T07:28:42.124Z,7.23
2019-05-14T07:31:34.450Z,6.80
2019-05-14T07:34:30.892Z,6.97
2019-05-14T07:37:28.534Z,7.10
2019-05-14T07:40:24.320Z,7.25
2019-05-14T07:43:20.031Z,7.60
2019-05-14T07:46:18.849Z,7.13
2019-05-14T07:49:13.544Z,8.13
2019-05-14T07:52:10.296Z,8.05
2019-05-14T07:55:09.260Z,7.80
2019-05-14T07:58:04.605Z,7.20
2019-05-14T08:00:59.375Z,6.70
2019-05-14T08:03:59.944Z,7.03
2019-05-14T08:06:52.964Z,6.20
2019-05-14T08:09:49.713Z,6.10
2019-05-14T08:12:52.138Z,5.83
2019-05-14T08:15:50.110Z,7.10
2019-05-14T08:18:48.468Z,5.95
2019-05-14T08:21:42.839Z,6.92
2019-05-14T08:24:39.518Z,7.00
2019-05-14T08:27:38.857Z,5.75
2019-05-14T08:30:33.681Z,6.10
2019-05-14T08:33:35.426Z,6.10
2019-05-14T08:36:31.144Z,6.20
2019-05-14T08:39:28.699Z,6.93
2019-05-14T08:42:24.242Z,6.10
2019-05-14T08:45:21.069Z,6.07
2019-05-14T08:48:19.168Z,6.20
2019-05-14T08:51:18.480Z,5.90
2019-05-14T08:54:12.341Z,6.20
2019-05-14T08:57:09.816Z,6.17
2019-05-14T09:00:13.474Z,5.70
2019-05-14T09:03:03.133Z,6.00
2019-05-14T09:06:00.838Z,5.93
2019-05-14T09:08:59.522Z,6.83
2019-05-14T09:11:53.647Z,6.57
2019-05-14T09:14:49.260Z,6.35
2019-05-14T09:17:48.532Z,6.60
2019-05-14T09:20:43.331Z,6.70
2019-05-14T09:23:40.028Z,6.20
2019-05-14T09:26:38.917Z,6.70
2019-05-14T09:29:33.679Z,6.70
2019-05-14T09:32:29.407Z,7.10
2019-05-14T09:35:29.201Z,6.80
2019-05-14T09:38:24.662Z,6.63
2019-05-14T09:41:21.294Z,6.93
2019-05-14T09:44:18.744Z,6.67
2019-05-14T09:47:20.626Z,6.40
2019-05-14T09:50:19.170Z,6.77
2019-05-14T09:53:10.964Z,6.87
2019-05-14T09:56:12.704Z,7.45
2019-05-14T09:59:09.348Z,6.80
2019-05-14T10:02:05.826Z,6.60
2019-05-14T10:05:01.467Z,6.10
2019-05-14T10:07:59.473Z,6.40
2019-05-14T10:10:54.872Z,6.60
2019-05-14T10:13:52.443Z,6.50
2019-05-14T10:16:50.218Z,6.40
2019-05-14T10:19:49.732Z,6.30
2019-05-14T10:22:44.982Z,6.67
2019-05-14T10:25:42.731Z,8.27
2019-05-14T10:28:43.456Z,6.63
2019-05-14T10:31:39.771Z,6.30
2019-05-14T10:34:34.255Z,6.43
2019-05-14T10:37:33.691Z,6.50
2019-05-14T10:40:31.569Z,6.90
2019-05-14T10:43:28.804Z,7.73
2019-05-14T10:46:29.199Z,6.87
2019-05-14T10:49:29.713Z,6.50
2019-05-14T10:52:25.008Z,6.97
2019-05-14T10:55:22.602Z,6.60
2019-05-14T10:58:20.868Z,6.63
2019-05-14T11:01:22.293Z,6.57
2019-05-14T11:04:15.346Z,6.47
2019-05-14T11:07:12.709Z,6.53
2019-05-14T11:10:11.204Z,6.43
2019-05-14T11:13:09.193Z,6.70
2019-05-14T11:16:08.403Z,6.43
2019-05-14T11:19:02.886Z,6.93
2019-05-14T11:22:00.324Z,7.20
2019-05-14T11:24:59.169Z,6.43
2019-05-14T11:27:58.771Z,6.50
2019-05-14T11:30:55.687Z,6.90
2019-05-14T11:33:52.204Z,7.00
2019-05-14T11:36:50.023Z,6.43
2019-05-14T11:39:49.894Z,6.40
2019-05-14T11:42:49.487Z,7.20
2019-05-14T11:45:44.167Z,6.90
2019-05-14T11:48:44.716Z,6.50
2019-05-14T11:51:59.602Z,7.30
2019-05-14T11:54:43.376Z,7.17
2019-05-14T11:57:43.024Z,6.70
2019-05-14T12:00:39.653Z,8.10
2019-05-14T12:03:39.466Z,6.58
2019-05-14T12:06:39.061Z,7.03
2019-05-14T12:09:39.054Z,7.10
2019-05-14T12:12:41.220Z,6.90
2019-05-14T12:15:43.332Z,7.00
2019-05-14T12:18:42.050Z,8.83
2019-05-14T12:21:39.925Z,10.23
2019-05-14T12:24:38.752Z,7.23
2019-05-14T12:27:33.537Z,8.48
2019-05-14T12:30:31.291Z,7.13
2019-05-14T12:33:34.903Z,7.35
2019-05-14T12:36:29.262Z,7.17
2019-05-14T12:39:24.911Z,6.77
2019-05-14T12:42:21.343Z,7.80
2019-05-14T12:45:21.083Z,6.93
2019-05-14T12:48:22.759Z,6.35
2019-05-14T12:51:23.070Z,6.30
2019-05-14T12:54:20.077Z,6.07
2019-05-14T12:57:18.938Z,6.40
2019-05-14T13:00:15.415Z,6.17
2019-05-14T13:03:20.758Z,10.70
2019-05-14T13:06:19.235Z,6.80
2019-05-14T13:09:19.126Z,6.70
2019-05-14T13:12:14.155Z,7.20
2019-05-14T13:15:15.536Z,7.07
2019-05-14T13:18:15.399Z,7.80
2019-05-14T13:21:11.927Z,9.65
2019-05-14T13:24:09.466Z,8.13
2019-05-14T13:27:11.404Z,6.90
2019-05-14T13:30:13.541Z,8.47
2019-05-14T13:33:11.042Z,17.87
2019-05-14T13:36:07.555Z,8.37
2019-05-14T13:39:09.225Z,8.17
2019-05-14T13:42:11.914Z,7.93
2019-05-14T13:45:03.579Z,21.87
2019-05-14T13:48:04.625Z,11.90
2019-05-14T13:51:04.279Z,23.10
2019-05-14T13:54:02.078Z,20.32
2019-05-14T13:56:58.624Z,27.27
2019-05-14T13:59:59.024Z,33.73
2019-05-14T14:02:59.008Z,26.42
2019-05-14T14:05:54.343Z,30.57
2019-05-14T14:08:52.089Z,24.00
2019-05-14T14:11:48.379Z,26.37
2019-05-14T14:14:49.083Z,24.05
2019-05-14T14:17:44.798Z,21.47
2019-05-14T14:20:48.850Z,16.20
2019-05-14T14:23:43.680Z,13.28
2019-05-14T14:26:41.356Z,9.33
2019-05-14T14:29:39.548Z,20.27
2019-05-14T14:32:35.194Z,18.48
2019-05-14T14:35:32.751Z,25.50
2019-05-14T14:38:35.039Z,10.50
2019-05-14T14:41:33.820Z,21.82
2019-05-14T14:44:30.720Z,22.87
2019-05-14T14:47:29.306Z,23.05
2019-05-14T14:50:28.966Z,16.70
2019-05-14T14:53:41.306Z,24.97
2019-05-14T14:56:22.165Z,17.40
2019-05-14T14:59:19.293Z,27.95
2019-05-14T15:02:19.862Z,28.60
2019-05-14T15:05:15.661Z,34.43
2019-05-14T15:08:12.540Z,23.20
2019-05-14T15:11:09.183Z,26.65
2019-05-14T15:14:08.436Z,26.50
2019-05-14T15:17:05.190Z,23.43
2019-05-14T15:20:02.740Z,15.05
2019-05-14T15:23:01.813Z,8.57
2019-05-14T15:26:02.023Z,15.67
2019-05-14T15:29:00.535Z,7.78
2019-05-14T15:31:59.166Z,6.58
2019-05-14T15:34:55.345Z,6.30
2019-05-14T15:38:00.430Z,6.40
2019-05-14T15:40:59.558Z,6.10
2019-05-14T15:43:54.282Z,5.90
2019-05-14T15:46:50.398Z,5.80
2019-05-14T15:49:48.862Z,5.87
2019-05-14T15:52:48.693Z,6.00
2019-05-14T15:55:49.052Z,6.47
2019-05-14T15:58:45.457Z,5.80
2019-05-14T16:01:46.656Z,5.73
2019-05-14T16:04:45.215Z,5.63
2019-05-14T16:07:43.002Z,6.00
2019-05-14T16:10:40.852Z,6.50
2019-05-14T16:13:39.810Z,6.60
2019-05-14T16:16:36.217Z,6.60
2019-05-14T16:19:34.125Z,6.22
2019-05-14T16:22:33.690Z,7.07
2019-05-14T16:25:31.309Z,6.20
2019-05-14T16:28:30.955Z,6.10
2019-05-14T16:31:31.793Z,5.90
2019-05-14T16:34:28.826Z,8.60
2019-05-14T16:37:28.068Z,5.50
2019-05-14T16:40:22.089Z,5.50
2019-05-14T16:43:19.426Z,7.70
2019-05-14T16:46:20.816Z,5.23
2019-05-14T16:49:18.518Z,5.25
2019-05-14T16:52:14.708Z,6.10
2019-05-14T16:55:23.122Z,5.83
2019-05-14T16:58:09.521Z,5.17
2019-05-14T17:01:05.007Z,4.72
2019-05-14T17:04:03.538Z,5.03
2019-05-14T17:07:00.404Z,5.27
2019-05-14T17:09:58.136Z,5.40
2019-05-14T17:12:57.435Z,5.30
2019-05-14T17:15:51.045Z,5.60
2019-05-14T17:18:48.794Z,5.10
2019-05-14T17:21:48.692Z,4.85
2019-05-14T17:24:43.861Z,9.63
2019-05-14T17:27:41.280Z,5.80
2019-05-14T17:30:38.730Z,9.60
2019-05-14T17:33:39.194Z,5.20
2019-05-14T17:36:32.683Z,4.97
2019-05-14T17:39:31.021Z,5.30
2019-05-14T17:42:29.397Z,5.80
2019-05-14T17:45:28.419Z,5.83
2019-05-14T17:48:24.245Z,5.27
2019-05-14T17:51:20.755Z,5.77
2019-05-14T17:54:18.687Z,8.60
2019-05-14T17:57:14.767Z,5.03
2019-05-14T18:00:12.009Z,5.30
2019-05-14T18:03:08.963Z,4.90
2019-05-14T18:06:08.992Z,4.97
2019-05-14T18:09:03.806Z,5.27
2019-05-14T18:12:01.949Z,5.37
2019-05-14T18:14:58.920Z,6.40
2019-05-14T18:17:58.657Z,6.10
2019-05-14T18:20:52.299Z,5.92
2019-05-14T18:23:49.304Z,6.00
2019-05-14T18:26:44.156Z,5.50
2019-05-14T18:29:42.461Z,5.33
2019-05-14T18:32:39.186Z,5.90
2019-05-14T18:35:45.073Z,5.60
2019-05-14T18:38:33.818Z,5.37
2019-05-14T18:41:31.442Z,5.33
2019-05-14T18:44:28.501Z,6.35
2019-05-14T18:47:29.094Z,6.13
2019-05-14T18:50:23.706Z,25.80
2019-05-14T18:53:20.380Z,7.73
2019-05-14T18:56:23.866Z,5.77
2019-05-14T18:59:14.665Z,6.00
2019-05-14T19:02:12.132Z,5.67
2019-05-14T19:05:11.721Z,5.30
2019-05-14T19:08:08.094Z,5.63
2019-05-14T19:11:05.487Z,6.40
2019-05-14T19:14:00.598Z,5.70
2019-05-14T19:17:03.350Z,5.57
2019-05-14T19:19:55.257Z,5.93
2019-05-14T19:22:52.433Z,6.47
2019-05-14T19:25:49.614Z,6.43
2019-05-14T19:28:48.481Z,5.95
2019-05-14T19:31:47.944Z,5.80
2019-05-14T19:34:43.739Z,6.10
2019-05-14T19:37:39.515Z,6.30
2019-05-14T19:40:38.969Z,6.60
2019-05-14T19:43:31.402Z,6.93
2019-05-14T19:46:29.170Z,6.20
2019-05-14T19:49:33.532Z,6.20
2019-05-14T19:52:29.265Z,6.47
2019-05-14T19:55:28.578Z,6.30
2019-05-14T19:58:21.645Z,6.10
2019-05-14T20:01:21.754Z,6.60
2019-05-14T20:04:32.189Z,5.93
2019-05-14T20:07:28.054Z,6.20
2019-05-14T20:10:24.623Z,5.97
2019-05-14T20:13:30.736Z,6.43
2019-05-14T20:16:28.675Z,6.45
2019-05-14T20:19:24.383Z,6.73
2019-05-14T20:22:22.253Z,6.03
2019-05-14T20:25:18.922Z,5.75
2019-05-14T20:28:15.905Z,6.07
2019-05-14T20:31:12.832Z,5.70
2019-05-14T20:34:08.839Z,6.30
2019-05-14T20:37:08.295Z,6.33
2019-05-14T20:40:02.480Z,6.35
2019-05-14T20:43:01.446Z,5.92
2019-05-14T20:45:59.466Z,6.70
2019-05-14T20:48:54.759Z,6.40
2019-05-14T20:51:50.557Z,6.70
2019-05-14T20:54:47.751Z,6.00
2019-05-14T20:57:43.153Z,6.30
2019-05-14T21:00:48.306Z,6.47
2019-05-14T21:03:44.048Z,6.55
2019-05-14T21:06:39.664Z,6.40
2019-05-14T21:09:35.293Z,7.33
2019-05-14T21:12:32.111Z,7.10
2019-05-14T21:15:28.990Z,7.03
2019-05-14T21:18:34.721Z,6.93
2019-05-14T21:21:23.830Z,7.30
2019-05-14T21:24:21.928Z,7.00
2019-05-14T21:27:21.229Z,7.10
2019-05-14T21:30:13.991Z,6.73
2019-05-14T21:33:11.811Z,6.92
2019-05-14T21:36:12.284Z,6.93
2019-05-14T21:39:07.946Z,6.73
2019-05-14T21:42:01.600Z,7.27
2019-05-14T21:44:58.553Z,7.30
2019-05-14T21:47:55.414Z,7.08
2019-05-14T21:50:52.225Z,7.10
2019-05-14T21:53:48.421Z,7.30
2019-05-14T21:56:45.972Z,7.07
2019-05-14T21:59:42.841Z,7.17
2019-05-14T22:02:38.745Z,7.03
2019-05-14T22:05:35.242Z,7.60
2019-05-14T22:08:30.858Z,7.10
2019-05-14T22:11:28.229Z,7.13
2019-05-14T22:14:24.101Z,6.83
2019-05-14T22:17:20.796Z,7.20
2019-05-14T22:20:28.863Z,7.27
2019-05-14T22:23:23.438Z,7.17
2019-05-14T22:26:31.355Z,7.70
2019-05-14T22:29:28.619Z,7.40
2019-05-14T22:32:24.509Z,7.07
2019-05-14T22:35:21.087Z,7.03
2019-05-14T22:38:19.984Z,6.83
2019-05-14T22:41:13.275Z,7.47
2019-05-14T22:44:09.715Z,7.20
2019-05-14T22:47:08.116Z,7.20
2019-05-14T22:50:01.955Z,7.17
2019-05-14T22:52:58.755Z,7.40
2019-05-14T22:55:53.972Z,7.37
2019-05-14T22:58:50.647Z,7.17
2019-05-14T23:01:48.065Z,7.53
2019-05-14T23:04:42.845Z,7.57
2019-05-14T23:07:40.042Z,7.17
2019-05-14T23:10:35.527Z,7.10
2019-05-14T23:13:32.153Z,7.13
2019-05-14T23:16:34.182Z,7.53
2019-05-14T23:19:32.450Z,7.60
2019-05-14T23:22:29.720Z,7.08
2019-05-14T23:25:24.886Z,7.40
2019-05-14T23:28:37.937Z,7.70
2019-05-14T23:31:21.376Z,7.43
2019-05-14T23:34:19.044Z,7.90
2019-05-14T23:37:18.170Z,8.47
2019-05-14T23:40:10.944Z,7.47
2019-05-14T23:43:07.488Z,8.00
2019-05-14T23:46:03.368Z,8.33
2019-05-14T23:49:00.876Z,6.90
2019-05-14T23:51:57.442Z,8.57
2019-05-14T23:54:53.279Z,7.60
2019-05-14T23:57:51.287Z,7.83
